createdAt,value
2018-06-15T00:00:19.580Z,91.13
2018-06-15T00:02:53.577Z,91.58
2018-06-15T00:05:22.580Z,91.44
2018-06-15T00:07:51.593Z,91.18
2018-06-15T00:10:20.633Z,92.46
2018-06-15T00:12:50.400Z,92.75
2018-06-15T00:15:19.476Z,91.63
2018-06-15T00:17:48.498Z,91.53
2018-06-15T00:20:17.543Z,92.04
2018-06-15T00:22:46.609Z,91.36
2018-06-15T00:25:15.583Z,91.28
2018-06-15T00:27:44.743Z,91.22
2018-06-15T00:30:13.771Z,91.57
2018-06-15T00:32:43.033Z,91.68
2018-06-15T00:35:12.064Z,91.84
2018-06-15T00:37:41.271Z,92.49
2018-06-15T00:40:10.269Z,92.41
2018-06-15T00:42:39.248Z,91.59
2018-06-15T00:45:08.320Z,92.43
2018-06-15T00:47:37.307Z,92.11
2018-06-15T00:50:06.395Z,92.93
2018-06-15T00:52:35.605Z,92.86
2018-06-15T00:55:04.572Z,92.73
2018-06-15T00:57:45.776Z,91.98
2018-06-15T01:00:14.898Z,92.57
2018-06-15T01:02:43.859Z,91.98
2018-06-15T01:05:12.978Z,92.13
2018-06-15T01:07:42.443Z,92.14
2018-06-15T01:10:11.512Z,91.92
2018-06-15T01:12:40.485Z,92.13
2018-06-15T01:15:09.496Z,92.76
2018-06-15T01:17:39.138Z,92.05
2018-06-15T01:20:08.446Z,91.88
2018-06-15T01:22:37.539Z,91.71
2018-06-15T01:25:06.897Z,91.99
2018-06-15T01:27:35.910Z,92.21
2018-06-15T01:30:05.576Z,92.87
2018-06-15T01:32:34.817Z,92.48
2018-06-15T01:35:04.100Z,92.14
2018-06-15T01:37:33.066Z,91.59
2018-06-15T01:40:02.134Z,92.13
2018-06-15T01:42:31.479Z,91.87
2018-06-15T01:45:00.618Z,91.29
2018-06-15T01:47:29.651Z,91.82
2018-06-15T01:49:58.609Z,91.21
2018-06-15T01:52:27.674Z,93.03
2018-06-15T01:54:56.660Z,92.44
2018-06-15T01:57:25.898Z,92.11
2018-06-15T01:59:54.972Z,92.12
2018-06-15T02:02:24.095Z,92.40
2018-06-15T02:04:53.075Z,92.13
2018-06-15T02:07:22.097Z,91.93
2018-06-15T02:09:51.225Z,92.00
2018-06-15T02:12:20.416Z,92.33
2018-06-15T02:14:49.429Z,92.31
2018-06-15T02:17:18.477Z,91.39
2018-06-15T02:19:47.459Z,91.90
2018-06-15T02:22:16.460Z,91.77
2018-06-15T02:24:45.455Z,92.48
2018-06-15T02:27:14.436Z,91.99
2018-06-15T02:29:43.539Z,92.11
2018-06-15T02:32:12.765Z,91.87
2018-06-15T02:34:41.868Z,92.78
2018-06-15T02:37:10.994Z,93.11
2018-06-15T02:39:40.203Z,92.63
2018-06-15T02:42:09.285Z,91.97
2018-06-15T02:44:38.363Z,92.28
2018-06-15T02:47:07.460Z,92.92
2018-06-15T02:49:36.448Z,92.00
2018-06-15T02:52:05.453Z,91.93
2018-06-15T02:54:34.477Z,91.58
2018-06-15T02:57:03.484Z,92.33
2018-06-15T02:59:33.411Z,92.00
2018-06-15T03:02:02.483Z,91.99
2018-06-15T03:04:31.425Z,91.98
2018-06-15T03:07:00.439Z,91.75
2018-06-15T03:09:29.456Z,93.08
2018-06-15T03:11:58.472Z,92.22
2018-06-15T03:14:27.509Z,92.20
2018-06-15T03:16:56.588Z,91.80
2018-06-15T03:19:25.583Z,91.96
2018-06-15T03:21:54.572Z,92.01
2018-06-15T03:24:23.559Z,91.49
2018-06-15T03:26:52.634Z,91.63
2018-06-15T03:29:21.688Z,92.23
2018-06-15T03:31:50.836Z,91.47
2018-06-15T03:34:19.825Z,91.65
2018-06-15T03:36:49.399Z,92.25
2018-06-15T03:39:18.637Z,92.52
2018-06-15T03:41:48.496Z,92.59
2018-06-15T03:44:17.595Z,92.19
2018-06-15T03:46:46.569Z,92.00
2018-06-15T03:49:15.595Z,91.72
2018-06-15T03:51:44.677Z,92.61
2018-06-15T03:54:14.010Z,92.87
2018-06-15T03:56:43.274Z,93.01
2018-06-15T03:59:12.255Z,92.92
2018-06-15T04:01:41.587Z,93.13
2018-06-15T04:04:10.907Z,92.36
2018-06-15T04:06:40.268Z,91.60
2018-06-15T04:09:10.482Z,92.21
2018-06-15T04:11:39.798Z,92.79
2018-06-15T04:14:08.775Z,92.72
2018-06-15T04:16:38.283Z,92.18
2018-06-15T04:19:07.781Z,91.62
2018-06-15T04:21:37.157Z,92.25
2018-06-15T04:24:06.996Z,92.57
2018-06-15T04:26:36.517Z,92.04
2018-06-15T04:29:05.880Z,92.64
2018-06-15T04:31:35.690Z,92.01
2018-06-15T04:34:04.936Z,91.96
2018-06-15T04:36:34.286Z,92.33
2018-06-15T04:39:03.437Z,91.28
2018-06-15T04:41:32.527Z,90.86
2018-06-15T04:44:01.540Z,91.22
2018-06-15T04:46:30.623Z,91.04
2018-06-15T04:48:59.712Z,90.42
2018-06-15T04:51:28.813Z,91.24
2018-06-15T04:53:58.087Z,90.69
2018-06-15T04:56:27.423Z,90.67
2018-06-15T04:58:56.478Z,91.21
2018-06-15T05:01:25.506Z,90.65
2018-06-15T05:03:54.592Z,90.31
2018-06-15T05:06:23.655Z,90.66
2018-06-15T05:08:52.694Z,91.25
2018-06-15T05:11:21.877Z,89.75
2018-06-15T05:13:50.890Z,89.47
2018-06-15T05:16:19.928Z,89.57
2018-06-15T05:18:48.928Z,89.61
2018-06-15T05:21:17.953Z,89.95
2018-06-15T05:23:54.020Z,88.92
2018-06-15T05:26:23.842Z,88.22
2018-06-15T05:28:52.907Z,89.27
2018-06-15T05:31:22.404Z,88.13
2018-06-15T05:33:51.961Z,86.40
2018-06-15T05:36:21.465Z,86.16
2018-06-15T05:38:50.894Z,85.99
2018-06-15T05:41:21.008Z,85.62
2018-06-15T05:43:50.077Z,86.66
2018-06-15T05:46:19.392Z,86.33
2018-06-15T05:48:48.702Z,85.73
2018-06-15T05:51:18.958Z,84.13
2018-06-15T05:53:48.336Z,83.55
2018-06-15T05:56:17.538Z,82.88
2018-06-15T05:58:46.964Z,83.20
2018-06-15T06:01:16.411Z,83.17
2018-06-15T06:03:45.852Z,82.62
2018-06-15T06:06:15.316Z,83.51
2018-06-15T06:08:44.535Z,84.27
2018-06-15T06:11:14.040Z,82.59
2018-06-15T06:13:43.430Z,80.35
2018-06-15T06:16:12.942Z,81.06
2018-06-15T06:18:42.320Z,80.23
2018-06-15T06:21:11.750Z,79.89
2018-06-15T06:23:41.506Z,78.01
2018-06-15T06:26:10.901Z,77.90
2018-06-15T06:28:40.509Z,79.70
2018-06-15T06:31:10.349Z,76.05
2018-06-15T06:33:39.785Z,74.97
2018-06-15T06:36:09.247Z,75.19
2018-06-15T06:38:38.813Z,76.75
2018-06-15T06:41:08.043Z,77.55
2018-06-15T06:43:37.689Z,78.15
2018-06-15T06:46:06.775Z,77.79
2018-06-15T06:48:35.768Z,77.48
2018-06-15T06:51:05.268Z,77.49
2018-06-15T06:53:34.531Z,77.12
2018-06-15T06:56:03.578Z,74.91
2018-06-15T06:58:32.647Z,76.01
2018-06-15T07:01:02.427Z,74.56
2018-06-15T07:03:31.493Z,75.32
2018-06-15T07:06:00.608Z,72.70
2018-06-15T07:08:31.115Z,71.29
2018-06-15T07:11:00.161Z,70.80
2018-06-15T07:13:29.199Z,65.67
2018-06-15T07:15:58.212Z,66.52
2018-06-15T07:18:27.297Z,63.18
2018-06-15T07:20:56.404Z,61.05
2018-06-15T07:23:25.486Z,61.63
2018-06-15T07:25:54.643Z,60.88
2018-06-15T07:28:23.682Z,61.29
2018-06-15T07:30:52.811Z,62.25
2018-06-15T07:33:21.939Z,60.26
2018-06-15T07:35:51.245Z,59.35
2018-06-15T07:38:20.586Z,61.93
2018-06-15T07:40:49.545Z,62.41
2018-06-15T07:43:18.619Z,61.95
2018-06-15T07:45:47.667Z,57.89
2018-06-15T07:48:16.670Z,61.49
2018-06-15T07:50:45.756Z,60.37
2018-06-15T07:53:15.456Z,61.72
2018-06-15T07:55:44.840Z,57.68
2018-06-15T07:58:13.905Z,59.70
2018-06-15T08:00:42.933Z,59.98
2018-06-15T08:03:12.264Z,59.88
2018-06-15T08:05:41.345Z,60.43
2018-06-15T08:08:10.382Z,57.55
2018-06-15T08:10:39.381Z,59.11
2018-06-15T08:13:09.123Z,56.10
2018-06-15T08:15:38.254Z,57.45
2018-06-15T08:18:07.241Z,55.27
2018-06-15T08:20:36.189Z,54.32
2018-06-15T08:23:05.340Z,56.55
2018-06-15T08:25:34.343Z,56.15
2018-06-15T08:28:03.407Z,54.24
2018-06-15T08:30:38.506Z,54.11
2018-06-15T08:33:07.806Z,51.29
2018-06-15T08:35:37.176Z,55.63
2018-06-15T08:38:06.295Z,50.30
2018-06-15T08:40:35.254Z,51.92
2018-06-15T08:43:04.311Z,53.11
2018-06-15T08:45:33.386Z,51.23
2018-06-15T08:48:02.450Z,51.86
2018-06-15T08:50:31.460Z,50.58
2018-06-15T08:53:00.456Z,49.46
2018-06-15T08:55:29.442Z,50.07
2018-06-15T08:57:58.591Z,52.06
2018-06-15T09:00:27.684Z,49.46
2018-06-15T09:02:56.672Z,48.10
2018-06-15T09:05:25.892Z,49.38
2018-06-15T09:07:54.989Z,48.23
2018-06-15T09:10:24.090Z,47.98
2018-06-15T09:12:53.130Z,49.57
2018-06-15T09:15:22.158Z,48.47
2018-06-15T09:17:51.188Z,49.30
2018-06-15T09:20:20.288Z,50.23
2018-06-15T09:22:49.296Z,52.44
2018-06-15T09:25:18.357Z,51.21
2018-06-15T09:27:47.381Z,51.34
2018-06-15T09:30:16.493Z,52.41
2018-06-15T09:32:45.620Z,49.74
2018-06-15T09:35:14.620Z,49.28
2018-06-15T09:37:44.078Z,48.90
2018-06-15T09:40:13.180Z,50.56
2018-06-15T09:42:42.477Z,49.59
2018-06-15T09:45:11.502Z,50.16
2018-06-15T09:47:40.689Z,52.03
2018-06-15T09:50:09.799Z,49.52
2018-06-15T09:52:39.047Z,46.69
2018-06-15T09:55:08.028Z,50.06
2018-06-15T09:57:37.201Z,47.71
2018-06-15T10:00:06.228Z,47.62
2018-06-15T10:02:36.554Z,47.88
2018-06-15T10:05:05.695Z,46.89
2018-06-15T10:07:34.694Z,48.95
2018-06-15T10:10:03.764Z,48.90
2018-06-15T10:12:33.163Z,48.34
2018-06-15T10:15:02.265Z,50.78
2018-06-15T10:17:31.380Z,49.74
2018-06-15T10:20:01.185Z,48.09
2018-06-15T10:22:30.307Z,46.79
2018-06-15T10:24:59.400Z,45.37
2018-06-15T10:27:28.416Z,46.89
2018-06-15T10:29:57.466Z,44.87
2018-06-15T10:32:26.550Z,46.71
2018-06-15T10:34:55.577Z,46.51
2018-06-15T10:37:24.690Z,45.66
2018-06-15T10:39:53.729Z,48.38
2018-06-15T10:42:22.865Z,46.16
2018-06-15T10:44:52.720Z,47.05
2018-06-15T10:47:22.156Z,44.55
2018-06-15T10:49:51.179Z,43.63
2018-06-15T10:52:20.146Z,44.80
2018-06-15T10:54:49.239Z,45.86
2018-06-15T10:57:18.309Z,44.37
2018-06-15T10:59:47.414Z,45.50
2018-06-15T11:02:16.477Z,45.11
2018-06-15T11:04:45.491Z,45.34
2018-06-15T11:07:14.570Z,46.48
2018-06-15T11:09:43.767Z,45.26
2018-06-15T11:12:12.957Z,46.69
2018-06-15T11:14:43.143Z,46.21
2018-06-15T11:17:12.278Z,45.31
2018-06-15T11:19:41.608Z,47.01
2018-06-15T11:22:11.074Z,46.02
2018-06-15T11:24:40.365Z,49.61
2018-06-15T11:27:09.441Z,47.84
2018-06-15T11:29:39.012Z,45.65
2018-06-15T11:32:08.837Z,44.58
2018-06-15T11:34:38.703Z,46.56
2018-06-15T11:37:08.242Z,45.65
2018-06-15T11:39:37.325Z,44.96
2018-06-15T11:42:06.918Z,43.73
2018-06-15T11:44:36.052Z,43.76
2018-06-15T11:47:05.095Z,46.05
2018-06-15T11:49:34.249Z,42.58
2018-06-15T11:52:03.314Z,43.29
2018-06-15T11:54:33.150Z,45.15
2018-06-15T11:57:02.270Z,43.42
2018-06-15T11:59:31.336Z,44.62
2018-06-15T12:02:00.470Z,45.75
2018-06-15T12:04:29.496Z,45.80
2018-06-15T12:06:58.543Z,45.82
2018-06-15T12:09:27.547Z,47.59
2018-06-15T12:11:56.876Z,43.33
2018-06-15T12:14:25.840Z,44.03
2018-06-15T12:16:55.493Z,44.88
2018-06-15T12:19:24.455Z,46.25
2018-06-15T12:21:54.040Z,45.83
2018-06-15T12:24:29.364Z,46.94
2018-06-15T12:26:58.469Z,46.73
2018-06-15T12:29:27.571Z,45.74
2018-06-15T12:31:56.760Z,45.95
2018-06-15T12:34:25.830Z,47.14
2018-06-15T12:36:54.890Z,44.66
2018-06-15T12:39:24.105Z,45.86
2018-06-15T12:41:54.544Z,44.85
2018-06-15T12:44:24.855Z,45.85
2018-06-15T12:46:53.900Z,45.74
2018-06-15T12:49:23.322Z,46.62
2018-06-15T12:51:53.348Z,46.59
2018-06-15T12:54:22.459Z,46.45
2018-06-15T12:56:51.436Z,46.97
2018-06-15T12:59:20.467Z,46.71
2018-06-15T13:01:49.516Z,42.48
2018-06-15T13:04:19.299Z,43.39
2018-06-15T13:06:48.485Z,43.67
2018-06-15T13:09:17.598Z,45.80
2018-06-15T13:11:46.662Z,46.29
2018-06-15T13:14:15.689Z,45.93
2018-06-15T13:16:44.719Z,43.72
2018-06-15T13:19:13.814Z,46.54
2018-06-15T13:21:42.856Z,46.77
2018-06-15T13:24:12.222Z,45.58
2018-06-15T13:26:41.356Z,43.01
2018-06-15T13:29:10.370Z,45.29
2018-06-15T13:31:39.410Z,43.98
2018-06-15T13:34:08.794Z,44.75
2018-06-15T13:36:38.121Z,43.35
2018-06-15T13:39:10.787Z,41.91
2018-06-15T13:41:39.794Z,42.27
2018-06-15T13:44:09.165Z,42.63
2018-06-15T13:46:38.492Z,42.82
2018-06-15T13:49:07.610Z,42.38
2018-06-15T13:51:36.840Z,43.99
2018-06-15T13:54:05.900Z,42.56
2018-06-15T13:56:34.889Z,42.11
2018-06-15T13:59:03.949Z,43.74
2018-06-15T14:01:33.007Z,41.98
2018-06-15T14:04:02.125Z,42.88
2018-06-15T14:06:31.246Z,41.84
2018-06-15T14:09:00.383Z,41.74
2018-06-15T14:11:29.453Z,43.21
2018-06-15T14:13:58.588Z,40.39
2018-06-15T14:16:27.684Z,42.44
2018-06-15T14:18:57.112Z,42.96
2018-06-15T14:21:27.512Z,39.34
2018-06-15T14:23:56.608Z,40.51
2018-06-15T14:26:25.680Z,42.44
2018-06-15T14:28:54.901Z,43.78
2018-06-15T14:31:24.091Z,43.39
2018-06-15T14:33:55.412Z,45.22
2018-06-15T14:36:24.574Z,42.70
2018-06-15T14:38:53.649Z,44.15
2018-06-15T14:41:22.712Z,42.96
2018-06-15T14:43:51.799Z,41.48
2018-06-15T14:46:20.869Z,43.59
2018-06-15T14:48:50.003Z,39.45
2018-06-15T14:51:19.033Z,41.42
2018-06-15T14:53:48.016Z,42.73
2018-06-15T14:56:17.039Z,43.23
2018-06-15T14:58:46.093Z,43.66
2018-06-15T15:01:15.211Z,42.53
2018-06-15T15:03:44.376Z,40.57
2018-06-15T15:06:14.192Z,43.30
2018-06-15T15:08:43.139Z,42.60
2018-06-15T15:11:12.242Z,43.64
2018-06-15T15:13:41.334Z,43.84
2018-06-15T15:16:10.438Z,45.31
2018-06-15T15:18:39.667Z,45.04
2018-06-15T15:21:08.730Z,41.41
2018-06-15T15:23:38.001Z,44.47
2018-06-15T15:26:07.195Z,43.66
2018-06-15T15:28:36.318Z,41.68
2018-06-15T15:31:05.597Z,43.27
2018-06-15T15:33:34.650Z,43.05
2018-06-15T15:36:03.973Z,43.01
2018-06-15T15:38:33.064Z,45.41
2018-06-15T15:41:02.189Z,45.71
2018-06-15T15:43:31.189Z,44.34
2018-06-15T15:46:00.165Z,42.74
2018-06-15T15:48:29.352Z,44.83
2018-06-15T15:50:58.414Z,44.39
2018-06-15T15:53:27.485Z,44.23
2018-06-15T15:55:57.046Z,43.45
2018-06-15T15:58:26.025Z,45.69
2018-06-15T16:00:55.175Z,44.55
2018-06-15T16:03:24.320Z,45.41
2018-06-15T16:05:53.398Z,46.31
2018-06-15T16:08:22.528Z,46.70
2018-06-15T16:10:51.986Z,46.48
2018-06-15T16:13:21.399Z,47.05
2018-06-15T16:15:50.899Z,45.19
2018-06-15T16:18:20.388Z,45.72
2018-06-15T16:20:49.684Z,45.70
2018-06-15T16:23:19.034Z,44.17
2018-06-15T16:25:48.435Z,45.10
2018-06-15T16:28:18.044Z,46.33
2018-06-15T16:30:47.477Z,46.29
2018-06-15T16:33:16.831Z,46.37
2018-06-15T16:35:46.902Z,44.37
2018-06-15T16:38:16.410Z,46.75
2018-06-15T16:40:45.776Z,48.54
2018-06-15T16:43:15.354Z,50.20
2018-06-15T16:45:44.796Z,49.78
2018-06-15T16:48:14.052Z,49.71
2018-06-15T16:50:43.388Z,52.28
2018-06-15T16:53:12.438Z,54.62
2018-06-15T16:55:41.493Z,57.28
2018-06-15T16:58:11.928Z,59.00
2018-06-15T17:00:41.418Z,60.94
2018-06-15T17:03:10.936Z,60.96
2018-06-15T17:05:40.806Z,58.75
2018-06-15T17:08:10.621Z,58.83
2018-06-15T17:10:39.897Z,59.71
2018-06-15T17:13:09.285Z,60.86
2018-06-15T17:15:38.647Z,62.23
2018-06-15T17:18:08.616Z,62.81
2018-06-15T17:20:37.966Z,62.37
2018-06-15T17:23:07.394Z,62.40
2018-06-15T17:25:36.759Z,60.85
2018-06-15T17:28:06.562Z,62.13
2018-06-15T17:30:36.356Z,61.24
2018-06-15T17:33:05.781Z,57.99
2018-06-15T17:35:35.109Z,55.93
2018-06-15T17:38:04.267Z,60.73
2018-06-15T17:40:33.410Z,60.84
2018-06-15T17:43:02.467Z,61.03
2018-06-15T17:45:31.557Z,62.38
2018-06-15T17:48:00.784Z,62.63
2018-06-15T17:50:30.504Z,64.30
2018-06-15T17:52:59.747Z,63.86
2018-06-15T17:55:28.888Z,64.24
2018-06-15T17:57:58.091Z,64.42
2018-06-15T18:00:27.319Z,64.68
2018-06-15T18:02:56.815Z,64.94
2018-06-15T18:05:26.195Z,64.08
2018-06-15T18:07:55.672Z,63.99
2018-06-15T18:10:25.199Z,63.95
2018-06-15T18:12:54.592Z,64.40
2018-06-15T18:15:24.102Z,65.81
2018-06-15T18:17:53.475Z,66.54
2018-06-15T18:20:24.259Z,67.08
2018-06-15T18:22:54.562Z,68.01
2018-06-15T18:25:24.032Z,66.45
2018-06-15T18:27:53.413Z,65.74
2018-06-15T18:30:22.595Z,66.94
2018-06-15T18:32:52.144Z,66.50
2018-06-15T18:35:21.488Z,66.34
2018-06-15T18:37:52.461Z,66.46
2018-06-15T18:40:21.907Z,66.37
2018-06-15T18:42:51.221Z,68.74
2018-06-15T18:45:20.735Z,68.09
2018-06-15T18:47:50.285Z,68.49
2018-06-15T18:50:19.553Z,68.23
2018-06-15T18:52:49.720Z,67.29
2018-06-15T18:55:19.116Z,66.01
2018-06-15T18:57:48.475Z,65.27
2018-06-15T19:00:17.838Z,65.76
2018-06-15T19:02:47.145Z,67.87
2018-06-15T19:05:17.670Z,67.36
2018-06-15T19:07:48.228Z,67.51
2018-06-15T19:10:18.012Z,69.64
2018-06-15T19:12:47.600Z,69.38
2018-06-15T19:15:16.991Z,68.16
2018-06-15T19:17:46.352Z,70.67
2018-06-15T19:20:15.682Z,69.00
2018-06-15T19:22:45.276Z,68.24
2018-06-15T19:25:14.631Z,68.89
2018-06-15T19:27:44.075Z,68.84
2018-06-15T19:30:13.568Z,68.76
2018-06-15T19:32:44.021Z,68.94
2018-06-15T19:35:13.403Z,69.89
2018-06-15T19:37:42.858Z,71.45
2018-06-15T19:40:12.360Z,72.62
2018-06-15T19:42:41.761Z,72.17
2018-06-15T19:45:11.318Z,71.82
2018-06-15T19:47:40.832Z,71.35
2018-06-15T19:50:10.245Z,72.00
2018-06-15T19:52:39.546Z,71.81
2018-06-15T19:55:08.814Z,71.62
2018-06-15T19:57:38.259Z,71.71
2018-06-15T20:00:08.527Z,72.19
2018-06-15T20:02:37.895Z,72.94
2018-06-15T20:05:07.332Z,73.73
2018-06-15T20:07:36.660Z,73.60
2018-06-15T20:10:05.960Z,73.11
2018-06-15T20:12:35.248Z,72.88
2018-06-15T20:15:04.962Z,73.04
2018-06-15T20:17:34.418Z,73.19
2018-06-15T20:20:03.832Z,74.10
2018-06-15T20:22:33.835Z,74.47
2018-06-15T20:25:05.127Z,73.79
2018-06-15T20:27:34.451Z,73.83
2018-06-15T20:30:04.059Z,74.47
2018-06-15T20:32:33.443Z,72.63
2018-06-15T20:35:02.698Z,72.74
2018-06-15T20:37:32.297Z,73.59
2018-06-15T20:40:01.567Z,74.37
2018-06-15T20:42:30.954Z,76.49
2018-06-15T20:45:00.578Z,76.44
2018-06-15T20:47:30.089Z,76.35
2018-06-15T20:49:59.716Z,76.73
2018-06-15T20:52:29.247Z,75.73
2018-06-15T20:54:58.701Z,76.69
2018-06-15T20:57:28.916Z,75.78
2018-06-15T20:59:58.425Z,75.44
2018-06-15T21:02:27.714Z,75.31
2018-06-15T21:04:57.030Z,76.65
2018-06-15T21:07:27.412Z,75.89
2018-06-15T21:09:57.100Z,76.40
2018-06-15T21:12:26.557Z,77.28
2018-06-15T21:14:56.078Z,78.09
2018-06-15T21:17:25.456Z,76.96
2018-06-15T21:19:54.941Z,78.12
2018-06-15T21:22:24.353Z,77.12
2018-06-15T21:24:53.728Z,77.98
2018-06-15T21:27:23.317Z,78.19
2018-06-15T21:29:53.020Z,79.37
2018-06-15T21:32:22.535Z,78.68
2018-06-15T21:34:52.211Z,78.50
2018-06-15T21:37:22.259Z,78.80
2018-06-15T21:39:51.867Z,78.93
2018-06-15T21:42:23.290Z,79.57
2018-06-15T21:44:52.749Z,79.58
2018-06-15T21:47:22.344Z,79.79
2018-06-15T21:49:52.698Z,78.92
2018-06-15T21:52:22.133Z,79.72
2018-06-15T21:54:51.635Z,79.80
2018-06-15T21:57:21.116Z,79.51
2018-06-15T21:59:50.548Z,80.98
2018-06-15T22:02:20.106Z,80.37
2018-06-15T22:04:49.403Z,80.41
2018-06-15T22:07:18.822Z,80.34
2018-06-15T22:09:48.322Z,80.38
2018-06-15T22:12:17.816Z,80.70
2018-06-15T22:14:47.115Z,79.50
2018-06-15T22:17:16.608Z,79.97
2018-06-15T22:19:46.069Z,79.67
2018-06-15T22:22:15.499Z,80.81
2018-06-15T22:24:45.036Z,80.44
2018-06-15T22:27:15.374Z,81.15
2018-06-15T22:29:45.567Z,80.47
2018-06-15T22:32:15.077Z,81.56
2018-06-15T22:34:44.341Z,81.55
2018-06-15T22:37:14.510Z,81.67
2018-06-15T22:39:43.793Z,82.96
2018-06-15T22:42:13.214Z,83.03
2018-06-15T22:44:42.630Z,82.12
2018-06-15T22:47:12.074Z,81.57
2018-06-15T22:49:41.639Z,81.88
2018-06-15T22:52:11.152Z,81.90
2018-06-15T22:54:40.653Z,81.09
2018-06-15T22:57:10.029Z,81.56
2018-06-15T22:59:39.539Z,81.56
2018-06-15T23:02:09.085Z,80.69
2018-06-15T23:04:38.601Z,82.14
2018-06-15T23:07:07.901Z,82.93
2018-06-15T23:09:37.264Z,82.01
2018-06-15T23:12:06.506Z,82.67
2018-06-15T23:14:35.963Z,82.85
2018-06-15T23:17:05.420Z,83.05
2018-06-15T23:19:34.857Z,82.06
2018-06-15T23:22:04.266Z,82.92
2018-06-15T23:24:33.720Z,83.07
2018-06-15T23:27:02.988Z,83.06
2018-06-15T23:29:32.309Z,84.30
2018-06-15T23:32:01.595Z,83.29
2018-06-15T23:34:30.919Z,83.17
2018-06-15T23:37:00.252Z,82.36
2018-06-15T23:39:29.581Z,81.75
2018-06-15T23:41:58.988Z,82.05
2018-06-15T23:44:28.312Z,82.10
2018-06-15T23:46:57.610Z,82.37
2018-06-15T23:49:27.004Z,82.51
2018-06-15T23:51:56.339Z,83.62
2018-06-15T23:54:25.613Z,82.61
2018-06-15T23:56:55.843Z,83.31
2018-06-15T23:59:25.201Z,82.86
